Time;durP1;ratioP1;P1;durP2;ratioP2;P2;SDS_P1;SDS_P2;PMS_P1;PMS_P2;Temp;Humidity;BMP_temperature;BMP_pressure;BME280_temperature;BME280_humidity;BME280_pressure;Samples;Min_cycle;Max_cycle;Signal;HPM_P1;HPM_P2
2021/06/01 00:01:33;;;;;;;1.90;1.80;;;17.00;31.10;;;;;;5030102;28;20449;-80
2021/06/01 00:04:01;;;;;;;3.77;1.73;;;17.00;31.80;;;;;;5029141;28;20818;-77
2021/06/01 00:06:29;;;;;;;1.93;1.73;;;16.90;31.30;;;;;;5030846;28;20823;-77
2021/06/01 00:08:57;;;;;;;3.00;1.80;;;16.80;46.80;;;;;;5027415;28;20444;-77
2021/06/01 00:11:26;;;;;;;1.93;1.60;;;16.80;32.90;;;;;;5030650;28;20462;-76
2021/06/01 00:13:55;;;;;;;2.23;2.00;;;16.80;31.00;;;;;;5030286;28;20584;-77
2021/06/01 00:16:25;;;;;;;1.57;1.47;;;16.70;30.70;;;;;;5030167;28;20505;-78
2021/06/01 00:18:52;;;;;;;1.90;1.80;;;16.70;30.50;;;;;;5021795;28;20485;-80
2021/06/01 00:21:20;;;;;;;2.10;2.00;;;16.70;31.70;;;;;;5028214;28;20469;-79
2021/06/01 00:23:48;;;;;;;1.87;1.77;;;16.60;31.50;;;;;;5030059;28;20478;-77
2021/06/01 00:26:15;;;;;;;1.70;1.60;;;16.50;31.70;;;;;;5030255;28;20438;-77
2021/06/01 00:28:43;;;;;;;2.13;1.90;;;16.50;32.40;;;;;;5028407;28;21020;-75
2021/06/01 00:31:12;;;;;;;2.23;2.03;;;16.40;31.30;;;;;;5030282;28;20474;-77
2021/06/01 00:33:40;;;;;;;2.07;1.80;;;16.40;31.80;;;;;;5028521;28;20595;-77
2021/06/01 00:36:08;;;;;;;1.70;1.60;;;16.40;31.80;;;;;;5029387;28;20449;-76
2021/06/01 00:38:37;;;;;;;3.47;1.80;;;16.40;31.60;;;;;;5029938;28;20492;-74
2021/06/01 00:41:05;;;;;;;2.03;1.53;;;16.30;31.40;;;;;;5028663;28;20448;-74
2021/06/01 00:43:33;;;;;;;1.70;1.50;;;16.30;31.70;;;;;;5029994;28;20819;-78
2021/06/01 00:46:01;;;;;;;2.00;1.80;;;16.30;30.80;;;;;;5023272;28;20511;-77
2021/06/01 00:48:30;;;;;;;2.77;2.50;;;16.20;31.30;;;;;;5021051;28;20522;-79
2021/06/01 00:50:59;;;;;;;1.87;1.77;;;16.20;30.40;;;;;;5029508;28;20480;-78
2021/06/01 00:53:27;;;;;;;2.73;2.10;;;16.20;30.60;;;;;;5020337;28;20514;-76
2021/06/01 00:55:55;;;;;;;1.90;1.80;;;16.10;30.80;;;;;;5026843;28;20840;-77
2021/06/01 00:58:24;;;;;;;1.70;1.60;;;16.10;31.40;;;;;;5026937;28;20949;-74
2021/06/01 01:01:15;;;;;;;1.43;1.30;;;16.10;32.20;;;;;;5030516;28;20428;-77
2021/06/01 01:03:45;;;;;;;2.70;1.57;;;16.10;32.50;;;;;;5028170;28;20481;-76
2021/06/01 01:06:20;;;;;;;5.73;2.20;;;16.10;33.00;;;;;;5030472;28;20459;-77
2021/06/01 01:08:51;;;;;;;3.33;2.23;;;16.00;32.60;;;;;;5026493;28;20463;-78
2021/06/01 01:11:24;;;;;;;1.80;1.70;;;16.00;31.50;;;;;;5030526;28;21033;-76
2021/06/01 01:13:56;;;;;;;7.40;1.90;;;15.90;33.10;;;;;;5029815;28;20487;-78
2021/06/01 01:16:27;;;;;;;1.90;1.80;;;15.90;32.10;;;;;;5030517;28;20944;-77
2021/06/01 01:19:00;;;;;;;1.63;1.53;;;15.90;31.80;;;;;;5028231;28;20459;-76
2021/06/01 01:21:33;;;;;;;1.90;1.80;;;15.90;32.50;;;;;;5032850;28;20443;-78
2021/06/01 01:24:16;;;;;;;2.00;1.90;;;15.90;31.90;;;;;;5033023;28;20459;-78
2021/06/01 01:26:57;;;;;;;1.70;1.60;;;15.80;31.60;;;;;;5028682;28;20467;-76
2021/06/01 01:29:37;;;;;;;2.13;1.83;;;15.80;32.60;;;;;;5029747;28;20460;-77
2021/06/01 01:32:08;;;;;;;2.03;1.70;;;15.80;32.60;;;;;;5032802;28;20544;-76
2021/06/01 01:34:39;;;;;;;1.73;1.60;;;15.80;32.70;;;;;;5032318;28;20475;-77
2021/06/01 01:37:08;;;;;;;1.70;1.50;;;15.80;31.90;;;;;;5033371;28;20447;-78
2021/06/01 01:39:42;;;;;;;2.03;1.93;;;15.70;32.30;;;;;;5031581;28;20450;-76
2021/06/01 01:42:12;;;;;;;1.87;1.77;;;15.60;33.20;;;;;;5032981;28;20450;-76
2021/06/01 01:44:48;;;;;;;2.10;1.70;;;15.60;33.70;;;;;;5025486;28;20544;-76
2021/06/01 01:50:14;;;;;;;3.10;2.80;;;15.50;33.80;;;;;;5017761;28;20477;-77
2021/06/01 01:52:43;;;;;;;9.20;4.20;;;15.50;34.30;;;;;;5032716;28;20452;-77
2021/06/01 01:55:12;;;;;;;6.73;3.47;;;15.50;34.10;;;;;;5011976;28;20511;-77
2021/06/01 01:57:46;;;;;;;2.80;2.60;;;15.50;34.00;;;;;;5032214;28;20989;-75
2021/06/01 02:00:17;;;;;;;6.13;2.90;;;15.40;35.90;;;;;;5061943;28;20532;-76
2021/06/01 02:02:47;;;;;;;6.73;4.17;;;15.40;43.10;;;;;;5032930;28;20445;-76
2021/06/01 02:05:18;;;;;;;6.93;5.00;;;15.40;35.50;;;;;;5033359;28;20559;-76
2021/06/01 02:07:47;;;;;;;7.67;5.03;;;15.40;36.80;;;;;;5029647;28;20950;-76
2021/06/01 02:10:15;;;;;;;7.63;5.73;;;15.30;36.80;;;;;;5032958;28;20518;-76
2021/06/01 02:12:43;;;;;;;10.60;6.00;;;15.30;36.70;;;;;;5029355;28;20506;-76
2021/06/01 02:15:12;;;;;;;11.40;5.73;;;15.30;37.20;;;;;;5020450;28;20838;-76
2021/06/01 02:17:40;;;;;;;8.60;4.20;;;15.20;37.10;;;;;;5032805;28;20448;-76
2021/06/01 02:20:11;;;;;;;5.30;3.23;;;15.20;51.70;;;;;;5033436;28;20449;-76
2021/06/01 02:25:39;;;;;;;6.87;4.20;;;15.20;37.80;;;;;;5032353;28;20455;-79
2021/06/01 02:28:15;;;;;;;3.40;2.70;;;15.10;38.10;;;;;;5029467;28;20445;-76
2021/06/01 02:30:50;;;;;;;3.90;3.23;;;15.10;37.90;;;;;;5013030;28;20474;-78
2021/06/01 02:33:21;;;;;;;3.70;2.80;;;15.10;52.90;;;;;;5031567;28;20806;-76
2021/06/01 02:35:50;;;;;;;2.63;2.33;;;15.10;38.30;;;;;;5032254;28;20453;-79
2021/06/01 02:38:19;;;;;;;5.60;2.90;;;14.90;37.90;;;;;;5031636;28;20453;-77
2021/06/01 02:40:51;;;;;;;4.03;2.70;;;14.90;39.70;;;;;;5031428;28;20502;-80
2021/06/01 02:43:20;;;;;;;3.60;2.93;;;14.90;41.00;;;;;;5032690;28;20460;-76
2021/06/01 02:45:48;;;;;;;3.70;3.00;;;14.90;40.90;;;;;;5030804;28;20492;-78
2021/06/01 02:48:20;;;;;;;3.17;2.53;;;14.90;41.60;;;;;;5025705;28;20464;-78
2021/06/01 02:50:50;;;;;;;4.37;2.83;;;14.90;41.00;;;;;;5032799;28;20475;-80
2021/06/01 02:53:22;;;;;;;3.97;2.90;;;14.90;41.70;;;;;;5030532;28;20455;-78
2021/06/01 02:55:51;;;;;;;5.00;3.07;;;14.70;41.40;;;;;;5020735;28;20452;-77
2021/06/01 02:58:19;;;;;;;3.57;2.87;;;14.60;41.70;;;;;;5030496;28;20517;-77
2021/06/01 03:00:47;;;;;;;3.30;2.47;;;14.70;42.30;;;;;;5032626;28;20453;-77
2021/06/01 03:03:15;;;;;;;5.50;2.87;;;14.70;44.00;;;;;;5031026;28;20461;-77
2021/06/01 03:05:43;;;;;;;2.80;2.57;;;14.70;44.70;;;;;;5031960;28;20475;-77
2021/06/01 03:08:21;;;;;;;3.00;2.70;;;14.80;45.40;;;;;;5027233;28;20452;-77
2021/06/01 03:10:49;;;;;;;3.27;2.40;;;14.70;43.50;;;;;;5012645;28;20824;-76
2021/06/01 03:13:16;;;;;;;2.30;2.10;;;14.70;45.90;;;;;;5027062;28;20455;-77
2021/06/01 03:15:44;;;;;;;2.40;2.20;;;14.70;46.20;;;;;;5028689;28;20474;-79
2021/06/01 03:18:12;;;;;;;2.40;2.10;;;14.70;46.40;;;;;;5028431;28;20459;-76
2021/06/01 03:20:41;;;;;;;2.47;2.27;;;14.70;45.90;;;;;;5022958;28;20448;-75
2021/06/01 03:23:09;;;;;;;2.50;2.30;;;14.70;45.80;;;;;;5030292;28;20864;-79
2021/06/01 03:25:38;;;;;;;3.00;2.80;;;14.60;45.20;;;;;;5025220;28;21317;-76
2021/06/01 03:28:06;;;;;;;3.40;2.20;;;14.60;46.00;;;;;;5030894;28;20445;-76
2021/06/01 03:30:34;;;;;;;6.53;4.27;;;14.50;46.40;;;;;;5031041;28;20479;-78
2021/06/01 03:33:02;;;;;;;10.10;6.20;;;14.50;46.10;;;;;;5030500;28;20520;-76
2021/06/01 03:35:30;;;;;;;6.23;4.07;;;14.50;45.80;;;;;;5031128;28;20472;-76
2021/06/01 03:37:58;;;;;;;4.23;2.57;;;14.40;46.70;;;;;;5031252;28;20451;-76
2021/06/01 03:40:26;;;;;;;3.60;2.80;;;14.50;47.40;;;;;;5030455;28;20500;-75
2021/06/01 03:42:55;;;;;;;5.23;3.00;;;14.50;47.50;;;;;;5031301;28;20556;-77
2021/06/01 03:45:26;;;;;;;5.73;3.10;;;14.50;47.50;;;;;;5029612;28;20485;-77
2021/06/01 03:47:53;;;;;;;4.40;3.00;;;14.40;47.90;;;;;;5028245;28;21027;-76
2021/06/01 03:50:22;;;;;;;2.40;2.20;;;14.30;47.30;;;;;;5027027;28;20451;-76
2021/06/01 03:52:50;;;;;;;5.00;2.37;;;14.30;46.80;;;;;;5029927;28;20500;-74
2021/06/01 03:55:19;;;;;;;3.03;2.10;;;14.30;47.40;;;;;;5031010;28;20468;-77
2021/06/01 03:57:48;;;;;;;2.87;2.57;;;14.40;48.30;;;;;;5033041;28;20457;-78
2021/06/01 04:00:20;;;;;;;2.80;2.47;;;14.40;49.40;;;;;;5028198;28;20990;-80
2021/06/01 04:02:47;;;;;;;3.47;2.27;;;14.30;49.10;;;;;;5036528;28;20530;-79
2021/06/01 04:05:18;;;;;;;2.90;2.70;;;14.30;49.50;;;;;;5034125;28;20540;-78
2021/06/01 04:07:46;;;;;;;2.57;2.37;;;14.30;49.50;;;;;;5026688;28;20992;-76
2021/06/01 04:10:15;;;;;;;3.20;2.70;;;14.30;48.60;;;;;;5021549;28;20456;-76
2021/06/01 04:12:43;;;;;;;3.13;2.70;;;14.30;50.20;;;;;;5030625;28;20453;-77
2021/06/01 04:15:12;;;;;;;3.07;2.77;;;14.30;48.70;;;;;;5024716;28;20472;-77
2021/06/01 04:17:41;;;;;;;3.40;2.63;;;14.30;49.50;;;;;;5050699;28;20513;-77
2021/06/01 04:20:09;;;;;;;2.17;1.90;;;14.30;49.90;;;;;;5019806;28;21158;-76
2021/06/01 04:22:37;;;;;;;3.10;2.50;;;14.30;49.60;;;;;;5062157;28;20447;-77
2021/06/01 04:25:06;;;;;;;4.80;2.80;;;14.30;50.30;;;;;;5026810;28;20489;-75
2021/06/01 04:27:34;;;;;;;3.20;2.90;;;14.30;51.60;;;;;;5030335;28;20496;-77
2021/06/01 04:30:04;;;;;;;3.23;2.47;;;14.30;51.40;;;;;;5033345;28;21007;-80
2021/06/01 04:32:31;;;;;;;2.80;2.60;;;14.30;52.90;;;;;;5031421;28;20469;-81
2021/06/01 04:35:01;;;;;;;4.30;3.50;;;14.30;53.40;;;;;;5032578;28;20469;-77
2021/06/01 04:37:28;;;;;;;2.90;2.70;;;14.30;53.50;;;;;;5030636;28;20954;-78
2021/06/01 04:39:57;;;;;;;3.87;2.80;;;14.40;55.60;;;;;;5029408;28;20454;-78
2021/06/01 04:42:24;;;;;;;4.37;2.77;;;14.30;54.40;;;;;;5028974;28;20772;-77
2021/06/01 04:44:52;;;;;;;4.13;3.17;;;14.30;53.70;;;;;;5024540;28;20862;-81
2021/06/01 04:47:20;;;;;;;2.77;2.27;;;14.40;55.20;;;;;;5019466;28;20534;-78
2021/06/01 04:49:48;;;;;;;4.97;2.90;;;14.40;54.20;;;;;;5026444;28;20459;-78
2021/06/01 04:52:17;;;;;;;3.03;2.83;;;14.40;53.50;;;;;;5028663;28;20483;-78
2021/06/01 04:54:45;;;;;;;4.47;2.90;;;14.50;56.50;;;;;;5027133;28;20865;-79
2021/06/01 04:57:13;;;;;;;4.40;3.17;;;14.50;56.50;;;;;;5034087;28;20976;-78
2021/06/01 04:59:40;;;;;;;4.23;2.80;;;14.50;57.80;;;;;;5033111;28;20441;-76
2021/06/01 05:02:08;;;;;;;3.50;3.20;;;14.50;58.50;;;;;;5050541;28;20500;-77
2021/06/01 05:04:36;;;;;;;3.93;3.00;;;14.50;58.20;;;;;;5035116;28;20529;-77
2021/06/01 05:07:04;;;;;;;4.10;3.37;;;14.60;58.50;;;;;;5035035;28;20436;-78
2021/06/01 05:09:33;;;;;;;5.47;3.20;;;14.60;58.70;;;;;;5034052;28;20436;-78
2021/06/01 05:12:01;;;;;;;4.87;3.13;;;14.60;60.20;;;;;;5035223;28;20909;-79
2021/06/01 05:14:29;;;;;;;3.80;3.40;;;14.70;61.30;;;;;;5035183;28;20475;-79
2021/06/01 05:16:57;;;;;;;7.50;5.63;;;14.70;63.70;;;;;;5035000;28;20442;-80
2021/06/01 05:19:25;;;;;;;7.53;4.53;;;14.80;64.00;;;;;;5034386;28;20534;-77
2021/06/01 05:21:52;;;;;;;5.00;4.30;;;14.80;64.50;;;;;;5034717;28;20950;-78
2021/06/01 05:24:20;;;;;;;3.83;3.20;;;14.90;65.50;;;;;;5019451;28;20484;-77
2021/06/01 05:26:50;;;;;;;3.83;3.43;;;14.90;67.30;;;;;;5014824;28;20453;-81
2021/06/01 05:29:18;;;;;;;2.90;2.60;;;15.00;67.90;;;;;;5043324;28;20848;-77
2021/06/01 05:31:50;;;;;;;3.57;3.27;;;15.10;69.30;;;;;;5014511;28;20531;-78
2021/06/01 05:34:20;;;;;;;4.80;4.30;;;15.10;70.00;;;;;;5062301;28;20471;-81
2021/06/01 05:36:47;;;;;;;2.73;2.40;;;15.20;73.00;;;;;;5034124;28;20944;-78
2021/06/01 05:39:15;;;;;;;3.73;2.90;;;15.30;75.10;;;;;;5033539;28;20456;-77
2021/06/01 05:41:43;;;;;;;2.60;2.20;;;15.30;72.90;;;;;;5034148;28;20449;-79
2021/06/01 05:44:12;;;;;;;2.70;2.47;;;15.40;72.90;;;;;;5033579;28;20480;-78
2021/06/01 05:46:40;;;;;;;1.40;1.30;;;15.50;69.00;;;;;;5034037;28;21026;-78
2021/06/01 05:49:08;;;;;;;1.80;1.70;;;15.60;64.30;;;;;;5032472;28;20451;-78
2021/06/01 05:51:37;;;;;;;1.47;1.37;;;15.70;81.00;;;;;;5034206;28;20848;-78
2021/06/01 05:54:07;;;;;;;2.00;1.80;;;15.70;55.10;;;;;;5032908;28;20530;-77
2021/06/01 05:56:35;;;;;;;1.40;1.20;;;15.80;52.50;;;;;;5033815;28;20522;-77
2021/06/01 05:59:04;;;;;;;1.73;1.60;;;15.90;50.80;;;;;;5033391;28;20450;-83
2021/06/01 06:01:33;;;;;;;1.80;1.70;;;15.90;47.70;;;;;;5029725;28;20458;-78
2021/06/01 06:04:01;;;;;;;1.40;1.30;;;15.90;48.80;;;;;;5034286;28;20871;-79
2021/06/01 06:06:29;;;;;;;1.83;1.73;;;16.00;49.20;;;;;;5033426;28;20456;-79
2021/06/01 06:08:57;;;;;;;1.73;1.63;;;16.00;51.80;;;;;;5032196;28;20943;-79
2021/06/01 06:11:24;;;;;;;1.63;1.50;;;16.10;68.50;;;;;;5065644;28;20484;-78
2021/06/01 06:13:52;;;;;;;1.60;1.50;;;16.20;54.70;;;;;;5033841;28;20554;-77
2021/06/01 06:16:20;;;;;;;1.83;1.70;;;16.30;53.90;;;;;;5033914;28;20445;-79
2021/06/01 06:18:56;;;;;;;1.90;1.80;;;16.40;52.80;;;;;;5033307;28;20460;-77
2021/06/01 06:21:24;;;;;;;1.60;1.50;;;16.40;51.80;;;;;;5032617;28;20451;-79
2021/06/01 06:23:52;;;;;;;2.30;1.70;;;16.40;52.90;;;;;;5032312;28;20491;-81
2021/06/01 06:26:20;;;;;;;1.67;1.30;;;16.50;54.20;;;;;;5033342;28;20948;-78
2021/06/01 06:28:47;;;;;;;1.40;1.30;;;16.50;57.90;;;;;;5032872;28;20953;-79
2021/06/01 06:31:15;;;;;;;1.30;1.20;;;16.60;58.50;;;;;;5032290;28;20452;-78
2021/06/01 06:33:43;;;;;;;1.47;1.30;;;16.70;70.80;;;;;;5033520;28;20460;-78
2021/06/01 06:36:12;;;;;;;2.43;1.50;;;16.60;51.10;;;;;;5032052;28;20452;-80
2021/06/01 06:38:41;;;;;;;2.80;1.53;;;16.70;54.50;;;;;;5032672;28;20479;-78
2021/06/01 06:41:12;;;;;;;2.53;1.47;;;16.80;57.30;;;;;;5033586;28;20465;-82
2021/06/01 06:43:44;;;;;;;1.70;1.60;;;16.80;55.40;;;;;;5028198;28;20457;-78
2021/06/01 06:46:17;;;;;;;2.13;1.87;;;16.90;51.60;;;;;;5017361;28;20507;-78
2021/06/01 06:48:45;;;;;;;1.43;1.20;;;16.90;52.60;;;;;;5018463;28;20514;-80
2021/06/01 06:51:14;;;;;;;1.90;1.80;;;17.10;55.80;;;;;;5032840;28;20811;-77
2021/06/01 06:53:50;;;;;;;3.63;1.40;;;17.20;58.70;;;;;;5028471;28;20880;-77
2021/06/01 06:56:18;;;;;;;1.40;1.30;;;17.40;56.30;;;;;;5032923;28;20434;-80
2021/06/01 06:58:46;;;;;;;2.07;1.60;;;17.50;54.60;;;;;;5032523;28;20853;-78
2021/06/01 07:01:14;;;;;;;1.77;1.37;;;17.50;53.50;;;;;;5031269;28;20450;-82
2021/06/01 07:03:42;;;;;;;2.33;1.67;;;17.70;71.50;;;;;;5033054;28;20478;-80
2021/06/01 07:06:10;;;;;;;2.40;1.40;;;17.70;55.40;;;;;;5032824;28;20463;-79
2021/06/01 07:08:39;;;;;;;3.20;1.50;;;18.00;60.50;;;;;;5030456;28;20760;-78
2021/06/01 07:11:06;;;;;;;1.87;1.77;;;18.10;64.40;;;;;;5032448;28;20455;-78
2021/06/01 07:13:44;;;;;;;2.30;1.27;;;18.30;66.70;;;;;;5031026;28;21257;-79
2021/06/01 07:16:12;;;;;;;2.47;1.17;;;18.30;61.70;;;;;;5032498;28;20944;-78
2021/06/01 07:18:41;;;;;;;1.50;1.40;;;18.40;65.10;;;;;;5011144;28;20441;-77
2021/06/01 07:21:11;;;;;;;1.80;1.70;;;18.40;63.60;;;;;;5014971;28;20479;-78
2021/06/01 07:23:40;;;;;;;1.50;1.40;;;18.50;65.20;;;;;;5050265;28;20509;-81
2021/06/01 07:26:10;;;;;;;1.67;1.30;;;18.60;64.50;;;;;;5028652;28;20515;-78
2021/06/01 07:28:38;;;;;;;2.00;1.80;;;18.60;65.20;;;;;;5031670;28;20459;-77
2021/06/01 07:31:07;;;;;;;1.73;1.33;;;18.70;65.10;;;;;;5032666;28;20445;-77
2021/06/01 07:33:35;;;;;;;2.70;1.70;;;18.70;61.40;;;;;;5032041;28;20537;-81
2021/06/01 07:36:04;;;;;;;1.90;1.70;;;18.60;58.20;;;;;;5030914;28;20539;-81
2021/06/01 07:38:31;;;;;;;1.73;1.63;;;18.60;55.70;;;;;;5029509;28;20453;-78
2021/06/01 07:41:01;;;;;;;1.90;1.80;;;18.60;58.10;;;;;;5030342;28;20872;-81
2021/06/01 07:43:29;;;;;;;2.43;1.60;;;18.50;55.20;;;;;;5031644;28;20440;-79
2021/06/01 07:45:57;;;;;;;1.70;1.60;;;18.50;55.20;;;;;;5031592;28;20453;-79
2021/06/01 07:48:25;;;;;;;1.77;1.60;;;18.40;55.40;;;;;;5030884;28;20505;-78
2021/06/01 07:50:52;;;;;;;1.80;1.60;;;18.50;55.40;;;;;;5032419;28;20440;-78
2021/06/01 07:53:20;;;;;;;2.07;1.40;;;18.50;54.50;;;;;;5058686;28;20468;-80
2021/06/01 07:55:47;;;;;;;1.50;1.40;;;18.50;55.50;;;;;;5021424;28;21051;-78
2021/06/01 07:58:16;;;;;;;2.57;2.30;;;18.60;56.60;;;;;;5030671;28;20452;-78
2021/06/01 08:00:44;;;;;;;2.20;1.40;;;18.60;57.80;;;;;;5029434;28;20577;-78
2021/06/01 08:03:15;;;;;;;2.03;1.80;;;18.70;59.50;;;;;;5031748;28;20490;-82
2021/06/01 08:05:43;;;;;;;1.80;1.40;;;18.80;58.30;;;;;;5051811;28;20474;-77
2021/06/01 08:08:11;;;;;;;5.13;1.60;;;18.80;59.30;;;;;;5049224;28;20508;-78
2021/06/01 08:10:39;;;;;;;3.97;1.80;;;18.80;61.40;;;;;;5010422;28;20457;-78
2021/06/01 08:13:06;;;;;;;1.77;1.50;;;18.90;60.50;;;;;;5012170;28;20809;-79
2021/06/01 08:15:35;;;;;;;1.77;1.67;;;18.90;59.00;;;;;;5010894;28;20465;-83
2021/06/01 08:18:04;;;;;;;17.77;2.80;;;18.90;58.50;;;;;;5010216;28;21052;-79
2021/06/01 08:20:35;;;;;;;1.60;1.50;;;18.90;58.30;;;;;;5012084;28;20454;-79
2021/06/01 08:23:03;;;;;;;3.63;1.70;;;18.90;53.90;;;;;;5011611;28;20452;-81
2021/06/01 08:25:34;;;;;;;2.23;1.70;;;18.90;55.80;;;;;;5012529;28;20852;-79
2021/06/01 08:28:01;;;;;;;2.23;1.73;;;18.90;53.60;;;;;;5010936;28;20453;-77
2021/06/01 08:30:30;;;;;;;1.97;1.60;;;19.00;53.70;;;;;;5009759;28;20445;-79
2021/06/01 08:32:59;;;;;;;1.47;1.37;;;19.00;52.90;;;;;;5016006;28;20468;-79
2021/06/01 08:35:27;;;;;;;2.10;1.50;;;19.10;53.60;;;;;;5031770;28;20542;-77
2021/06/01 08:37:54;;;;;;;2.13;1.50;;;19.20;55.20;;;;;;5031036;28;20535;-78
2021/06/01 08:40:22;;;;;;;2.53;1.30;;;19.20;53.60;;;;;;5031197;28;20782;-78
2021/06/01 08:42:51;;;;;;;2.00;1.80;;;19.20;54.70;;;;;;5031679;28;20452;-79
2021/06/01 08:45:21;;;;;;;1.83;1.40;;;19.20;52.90;;;;;;5030759;28;20988;-79
2021/06/01 08:47:49;;;;;;;3.80;1.60;;;19.20;52.20;;;;;;5030627;28;20452;-78
2021/06/01 08:50:18;;;;;;;3.83;1.70;;;19.30;54.30;;;;;;5023195;28;20465;-78
2021/06/01 08:52:46;;;;;;;3.00;1.40;;;19.40;54.50;;;;;;5029675;28;20476;-78
2021/06/01 08:55:14;;;;;;;2.23;1.70;;;19.40;52.60;;;;;;5063019;28;20477;-78
2021/06/01 08:57:43;;;;;;;1.93;1.30;;;19.40;54.60;;;;;;5031394;28;20975;-80
2021/06/01 09:00:12;;;;;;;1.60;1.47;;;19.60;61.10;;;;;;5025517;28;20514;-79
2021/06/01 09:02:41;;;;;;;1.50;1.40;;;19.70;56.00;;;;;;5031203;28;20452;-78
2021/06/01 09:05:13;;;;;;;1.30;1.20;;;19.70;53.10;;;;;;5031102;28;20498;-81
2021/06/01 09:07:51;;;;;;;1.20;1.10;;;19.70;51.80;;;;;;5031124;28;21135;-81
2021/06/01 09:10:32;;;;;;;1.60;1.40;;;19.80;51.20;;;;;;5031122;28;20944;-79
2021/06/01 09:19:50;;;;;;;1.53;1.30;;;19.90;53.40;;;;;;5028078;28;20476;-80
2021/06/01 09:21:29;;;;;;;2.83;1.67;;;20.00;54.90;;;;;;5027270;28;20578;-79
2021/06/01 09:24:01;;;;;;;3.13;1.60;;;20.10;54.40;;;;;;5030016;28;20534;-81
2021/06/01 09:26:51;;;;;;;1.40;1.30;;;20.10;52.50;;;;;;5016071;28;20444;-78
2021/06/01 09:29:19;;;;;;;3.00;1.60;;;20.10;51.30;;;;;;5030096;28;20491;-79
2021/06/01 09:32:05;;;;;;;1.57;1.47;;;20.10;68.20;;;;;;5030918;28;20441;-78
2021/06/01 09:34:38;;;;;;;1.47;1.37;;;20.10;53.00;;;;;;5030588;28;20464;-81
2021/06/01 09:37:17;;;;;;;1.80;1.70;;;20.30;57.50;;;;;;5031022;28;20936;-78
2021/06/01 09:40:03;;;;;;;1.57;1.40;;;20.30;55.40;;;;;;5024583;28;21484;-78
2021/06/01 09:42:33;;;;;;;2.80;1.90;;;20.40;56.10;;;;;;5024286;28;20449;-77
2021/06/01 09:45:09;;;;;;;2.07;1.50;;;20.30;53.40;;;;;;5032966;28;21030;-79
2021/06/01 09:47:51;;;;;;;4.90;1.50;;;20.20;52.70;;;;;;5034365;28;20509;-78
2021/06/01 09:53:07;;;;;;;1.40;1.40;;;20.30;54.20;;;;;;5013277;28;20480;-78
2021/06/01 09:55:43;;;;;;;1.60;1.50;;;20.40;75.70;;;;;;5025178;28;20484;-79
2021/06/01 09:58:13;;;;;;;1.50;1.40;;;20.40;55.40;;;;;;5024873;28;20542;-79
2021/06/01 10:00:42;;;;;;;2.80;1.30;;;20.60;56.00;;;;;;5020237;28;20457;-78
2021/06/01 10:03:15;;;;;;;1.40;1.30;;;20.60;56.50;;;;;;5033675;28;20444;-77
2021/06/01 10:05:44;;;;;;;1.80;1.30;;;20.60;56.60;;;;;;5033608;28;21003;-79
2021/06/01 10:08:16;;;;;;;3.23;2.73;;;20.70;57.60;;;;;;5033029;28;20449;-79
2021/06/01 10:10:51;;;;;;;1.47;1.37;;;20.70;58.60;;;;;;5033977;28;20452;-78
2021/06/01 10:13:20;;;;;;;2.17;1.60;;;20.80;57.30;;;;;;5033768;28;20536;-78
2021/06/01 10:15:50;;;;;;;2.40;1.60;;;20.70;54.70;;;;;;5033653;28;20464;-79
2021/06/01 10:18:19;;;;;;;2.57;1.63;;;20.80;56.00;;;;;;5032626;28;20962;-79
2021/06/01 10:20:48;;;;;;;1.60;1.50;;;20.80;55.60;;;;;;5033523;28;20456;-78
2021/06/01 10:23:20;;;;;;;1.63;1.53;;;20.80;51.50;;;;;;5024265;28;20472;-79
2021/06/01 10:25:50;;;;;;;1.50;1.40;;;20.80;56.00;;;;;;5012841;28;20480;-78
2021/06/01 10:28:25;;;;;;;2.30;1.50;;;20.80;54.40;;;;;;5044599;28;20837;-81
2021/06/01 10:30:55;;;;;;;1.20;1.10;;;20.80;53.60;;;;;;5012440;28;20449;-77
2021/06/01 10:33:26;;;;;;;1.70;1.37;;;20.90;55.70;;;;;;5044981;28;20485;-77
2021/06/01 10:36:05;;;;;;;3.33;1.43;;;20.80;54.50;;;;;;5032391;28;20506;-78
2021/06/01 10:44:49;;;;;;;3.00;1.70;;;21.10;58.60;;;;;;5032878;28;20823;-79
2021/06/01 10:50:30;;;;;;;1.43;1.33;;;21.10;56.50;;;;;;5029946;28;20514;-78
2021/06/01 10:53:11;;;;;;;2.30;1.30;;;21.20;61.20;;;;;;5031557;28;20471;-79
2021/06/01 10:56:00;;;;;;;4.53;1.57;;;21.40;63.10;;;;;;5032601;28;21295;-79
2021/06/01 10:59:03;;;;;;;1.67;1.57;;;21.40;57.90;;;;;;5021090;28;21134;-78
2021/06/01 11:04:19;;;;;;;1.47;1.37;;;21.50;65.10;;;;;;5032721;28;20464;-78
2021/06/01 11:07:39;;;;;;;2.90;1.30;;;21.60;59.80;;;;;;5031032;28;20454;-79
2021/06/01 11:10:07;;;;;;;1.67;1.37;;;21.50;60.80;;;;;;5031651;28;20459;-79
2021/06/01 11:12:44;;;;;;;1.30;1.20;;;21.60;60.90;;;;;;5030863;28;20451;-82
2021/06/01 11:15:34;;;;;;;2.10;1.33;;;21.60;57.00;;;;;;5032708;28;20517;-77
2021/06/01 11:18:31;;;;;;;1.37;1.27;;;21.60;59.70;;;;;;5027041;28;20477;-80
2021/06/01 11:21:32;;;;;;;6.00;1.40;;;21.60;60.00;;;;;;5007865;28;20453;-78
2021/06/01 11:33:23;;;;;;;1.30;1.20;;;21.80;59.50;;;;;;5031324;28;20577;-79
2021/06/01 11:35:59;;;;;;;1.33;1.23;;;21.90;59.90;;;;;;5031912;28;21037;-79
2021/06/01 11:38:35;;;;;;;3.10;1.57;;;21.80;57.50;;;;;;5030985;28;20458;-79
2021/06/01 11:41:19;;;;;;;5.40;1.70;;;21.80;59.20;;;;;;5031859;28;20504;-83
2021/06/01 11:43:47;;;;;;;1.50;1.23;;;21.90;59.60;;;;;;5032165;28;21088;-81
2021/06/01 11:46:38;;;;;;;1.57;1.47;;;21.90;65.00;;;;;;5022152;28;20953;-80
2021/06/01 11:51:53;;;;;;;2.03;1.20;;;21.90;58.90;;;;;;5030581;28;20454;-79
2021/06/01 11:54:21;;;;;;;1.47;1.17;;;22.00;57.90;;;;;;5031663;28;21060;-79
2021/06/01 11:57:07;;;;;;;2.77;1.07;;;21.90;55.60;;;;;;5016314;28;20454;-81
2021/06/01 12:02:32;;;;;;;5.50;2.03;;;21.80;57.10;;;;;;5032174;28;20484;-79
2021/06/01 12:05:20;;;;;;;2.37;1.57;;;21.80;55.10;;;;;;5029983;28;20987;-79
2021/06/01 12:18:56;;;;;;;2.27;1.50;;;22.20;63.30;;;;;;5030791;28;20486;-77
2021/06/01 12:21:30;;;;;;;2.37;1.60;;;22.30;65.30;;;;;;5031634;28;20452;-79
2021/06/01 12:24:01;;;;;;;1.93;1.83;;;22.30;64.00;;;;;;5030181;28;20465;-78
2021/06/01 12:26:40;;;;;;;2.30;1.77;;;22.20;65.40;;;;;;5019688;28;20452;-79
2021/06/01 12:32:05;;;;;;;1.50;1.40;;;22.40;68.70;;;;;;5012053;28;20941;-80
2021/06/01 12:34:56;;;;;;;1.60;1.50;;;22.50;67.80;;;;;;5019458;28;20568;-80
2021/06/01 12:43:18;;;;;;;3.10;1.87;;;22.30;64.50;;;;;;5024494;28;20451;-79
2021/06/01 13:21:02;;;;;;;2.57;1.70;;;22.70;70.50;;;;;;5106050;27;20452;-79
2021/06/01 13:40:28;;;;;;;3.10;1.50;;;22.60;68.20;;;;;;5104757;28;20458;-78
2021/06/01 13:51:47;;;;;;;1.83;1.70;;;22.80;69.90;;;;;;5108369;28;20456;-78
2021/06/01 13:57:10;;;;;;;4.90;2.00;;;22.80;70.30;;;;;;5108327;28;20444;-78
2021/06/01 14:22:02;;;;;;;1.63;1.40;;;23.10;69.10;;;;;;5103242;28;20445;-78
2021/06/01 14:30:06;;;;;;;1.83;1.47;;;23.00;67.30;;;;;;5092769;28;20449;-79
2021/06/01 14:35:51;;;;;;;1.50;1.40;;;23.00;71.00;;;;;;5093805;28;20528;-79
2021/06/01 14:38:47;;;;;;;1.40;1.30;;;23.00;66.30;;;;;;5091986;28;20515;-79
2021/06/01 15:23:45;;;;;;;2.07;1.80;;;23.20;69.30;;;;;;5037380;28;20957;-78
2021/06/01 15:28:56;;;;;;;2.93;1.50;;;23.30;70.10;;;;;;5092178;28;20449;-78
2021/06/01 15:31:46;;;;;;;3.03;1.50;;;23.30;70.70;;;;;;5092671;28;20465;-81
2021/06/01 15:48:41;;;;;;;1.47;1.37;;;23.40;69.30;;;;;;5091863;28;20458;-76
2021/06/01 15:54:14;;;;;;;2.00;1.90;;;23.30;69.30;;;;;;5092752;27;20477;-80
2021/06/01 16:13:45;;;;;;;1.97;1.67;;;23.30;72.50;;;;;;5124789;27;20828;-78
2021/06/01 16:21:59;;;;;;;1.70;1.60;;;23.20;69.10;;;;;;5092350;28;20453;-79
2021/06/01 16:30:11;;;;;;;1.70;1.60;;;23.20;69.70;;;;;;5088773;28;21192;-85
2021/06/01 16:32:56;;;;;;;1.53;1.40;;;23.20;68.90;;;;;;5085957;28;20477;-78
2021/06/01 16:43:50;;;;;;;2.30;1.50;;;23.20;68.10;;;;;;5091442;28;20449;-78
2021/06/01 17:03:12;;;;;;;1.50;1.40;;;23.10;67.50;;;;;;5078691;28;20511;-78
2021/06/01 17:05:45;;;;;;;1.50;1.40;;;23.10;68.10;;;;;;5090894;28;20465;-77
2021/06/01 17:08:47;;;;;;;1.77;1.67;;;23.10;66.60;;;;;;5088992;28;20437;-79
2021/06/01 17:11:15;;;;;;;2.13;1.30;;;23.10;65.90;;;;;;5090740;28;20471;-78
2021/06/01 17:13:49;;;;;;;1.50;1.40;;;23.10;67.60;;;;;;5089769;28;20537;-78
2021/06/01 17:16:25;;;;;;;2.03;1.93;;;23.10;65.20;;;;;;5091091;28;20466;-78
2021/06/01 17:35:39;;;;;;;1.85;1.70;;;23.00;64.20;;;;;;5080274;28;20429;-77
2021/06/01 17:38:09;;;;;;;2.83;1.60;;;23.00;64.20;;;;;;5083589;28;20204;-76
2021/06/01 17:40:39;;;;;;;1.40;1.30;;;23.00;63.10;;;;;;5080045;28;20530;-79
2021/06/01 17:43:10;;;;;;;1.90;1.40;;;22.90;62.90;;;;;;5087309;28;20442;-78
2021/06/01 17:45:40;;;;;;;3.10;1.60;;;22.90;63.60;;;;;;5083919;28;20555;-78
2021/06/01 17:48:11;;;;;;;2.10;1.30;;;22.90;61.80;;;;;;5081625;28;20457;-77
2021/06/01 17:50:39;;;;;;;2.10;1.90;;;22.90;60.90;;;;;;5077056;28;20450;-77
2021/06/01 17:53:08;;;;;;;1.90;1.80;;;22.80;62.00;;;;;;5087427;28;20457;-76
2021/06/01 17:55:36;;;;;;;1.90;1.80;;;22.80;61.20;;;;;;5119225;28;20595;-76